sensor_id;sensor_type;location;lat;lon;timestamp;pressure;altitude;pressure_sealevel;temperature;humidity
19086;BME280;9675;51.538;6.728;2023-01-31T00:01:39;102101.34;;;5.34;100.00
19086;BME280;9675;51.538;6.728;2023-01-31T00:04:09;102091.13;;;5.34;100.00
19086;BME280;9675;51.538;6.728;2023-01-31T00:06:41;102091.03;;;5.33;100.00
19086;BME280;9675;51.538;6.728;2023-01-31T00:09:10;102096.72;;;5.30;100.00
19086;BME280;9675;51.538;6.728;2023-01-31T00:11:38;102106.94;;;5.30;100.00
19086;BME280;9675;51.538;6.728;2023-01-31T00:14:07;102095.56;;;5.27;100.00
19086;BME280;9675;51.538;6.728;2023-01-31T00:16:37;102088.81;;;5.27;100.00
19086;BME280;9675;51.538;6.728;2023-01-31T00:19:04;102097.06;;;5.25;100.00
19086;BME280;9675;51.538;6.728;2023-01-31T00:21:32;102091.06;;;5.24;100.00
19086;BME280;9675;51.538;6.728;2023-01-31T00:23:59;102090.31;;;5.25;100.00
19086;BME280;9675;51.538;6.728;2023-01-31T00:26:29;102095.28;;;5.24;100.00
19086;BME280;9675;51.538;6.728;2023-01-31T00:28:59;102098.72;;;5.24;100.00
19086;BME280;9675;51.538;6.728;2023-01-31T00:31:29;102104.63;;;5.23;100.00
19086;BME280;9675;51.538;6.728;2023-01-31T00:33:58;102112.28;;;5.23;100.00
19086;BME280;9675;51.538;6.728;2023-01-31T00:36:28;102110.34;;;5.21;100.00
19086;BME280;9675;51.538;6.728;2023-01-31T00:38:58;102092.78;;;5.15;100.00
19086;BME280;9675;51.538;6.728;2023-01-31T00:41:29;102092.31;;;5.19;100.00
19086;BME280;9675;51.538;6.728;2023-01-31T00:43:56;102105.84;;;5.18;100.00
19086;BME280;9675;51.538;6.728;2023-01-31T00:46:24;102101.34;;;5.16;100.00
19086;BME280;9675;51.538;6.728;2023-01-31T00:48:53;102100.44;;;5.15;100.00
19086;BME280;9675;51.538;6.728;2023-01-31T00:51:24;102090.88;;;5.12;100.00
19086;BME280;9675;51.538;6.728;2023-01-31T00:53:52;102093.28;;;5.11;100.00
19086;BME280;9675;51.538;6.728;2023-01-31T00:56:22;102102.59;;;5.10;100.00
19086;BME280;9675;51.538;6.728;2023-01-31T00:58:51;102099.91;;;5.09;100.00
19086;BME280;9675;51.538;6.728;2023-01-31T01:01:21;102100.66;;;5.08;100.00
19086;BME280;9675;51.538;6.728;2023-01-31T01:03:49;102108.31;;;5.08;100.00
19086;BME280;9675;51.538;6.728;2023-01-31T01:06:17;102113.13;;;5.05;100.00
19086;BME280;9675;51.538;6.728;2023-01-31T01:08:46;102109.53;;;5.03;100.00
19086;BME280;9675;51.538;6.728;2023-01-31T01:11:16;102106.72;;;5.00;100.00
19086;BME280;9675;51.538;6.728;2023-01-31T01:13:44;102103.00;;;4.96;100.00
19086;BME280;9675;51.538;6.728;2023-01-31T01:16:16;102092.38;;;4.92;100.00
19086;BME280;9675;51.538;6.728;2023-01-31T01:18:44;102105.13;;;4.92;100.00
19086;BME280;9675;51.538;6.728;2023-01-31T01:21:16;102097.47;;;4.92;100.00
19086;BME280;9675;51.538;6.728;2023-01-31T01:23:49;102099.47;;;4.86;100.00
19086;BME280;9675;51.538;6.728;2023-01-31T01:26:20;102107.88;;;4.85;100.00
19086;BME280;9675;51.538;6.728;2023-01-31T01:28:49;102099.16;;;4.83;100.00
19086;BME280;9675;51.538;6.728;2023-01-31T01:31:18;102098.25;;;4.82;100.00
19086;BME280;9675;51.538;6.728;2023-01-31T01:33:47;102087.03;;;4.80;100.00
19086;BME280;9675;51.538;6.728;2023-01-31T01:36:17;102086.28;;;4.81;100.00
19086;BME280;9675;51.538;6.728;2023-01-31T01:38:48;102084.31;;;4.79;100.00
19086;BME280;9675;51.538;6.728;2023-01-31T01:41:15;102085.06;;;4.78;100.00
19086;BME280;9675;51.538;6.728;2023-01-31T01:43:45;102084.81;;;4.75;100.00
19086;BME280;9675;51.538;6.728;2023-01-31T01:46:18;102077.91;;;4.74;100.00
19086;BME280;9675;51.538;6.728;2023-01-31T01:48:50;102071.91;;;4.73;100.00
19086;BME280;9675;51.538;6.728;2023-01-31T01:51:19;102084.50;;;4.71;100.00
19086;BME280;9675;51.538;6.728;2023-01-31T01:53:53;102081.84;;;4.70;100.00
19086;BME280;9675;51.538;6.728;2023-01-31T01:56:27;102068.50;;;4.64;100.00
19086;BME280;9675;51.538;6.728;2023-01-31T01:59:02;102074.66;;;4.66;100.00
19086;BME280;9675;51.538;6.728;2023-01-31T02:01:35;102083.97;;;4.65;100.00
19086;BME280;9675;51.538;6.728;2023-01-31T02:04:06;102082.16;;;4.64;100.00
19086;BME280;9675;51.538;6.728;2023-01-31T02:06:35;102089.06;;;4.65;100.00
19086;BME280;9675;51.538;6.728;2023-01-31T02:09:08;102091.31;;;4.62;100.00
19086;BME280;9675;51.538;6.728;2023-01-31T02:11:38;102084.41;;;4.61;100.00
19086;BME280;9675;51.538;6.728;2023-01-31T02:14:08;102092.06;;;4.61;100.00
19086;BME280;9675;51.538;6.728;2023-01-31T02:16:36;102096.91;;;4.58;100.00
19086;BME280;9675;51.538;6.728;2023-01-31T02:19:09;102102.75;;;4.57;100.00
19086;BME280;9675;51.538;6.728;2023-01-31T02:22:11;102099.44;;;4.58;100.00
19086;BME280;9675;51.538;6.728;2023-01-31T02:25:18;102106.19;;;4.58;100.00
19086;BME280;9675;51.538;6.728;2023-01-31T02:34:42;102104.13;;;4.54;100.00
19086;BME280;9675;51.538;6.728;2023-01-31T02:37:24;102100.53;;;4.52;100.00
19086;BME280;9675;51.538;6.728;2023-01-31T02:40:07;102107.28;;;4.51;100.00
19086;BME280;9675;51.538;6.728;2023-01-31T02:42:52;102102.06;;;4.50;100.00
19086;BME280;9675;51.538;6.728;2023-01-31T02:45:34;102098.28;;;4.46;100.00
19086;BME280;9675;51.538;6.728;2023-01-31T02:48:15;102097.13;;;4.43;100.00
19086;BME280;9675;51.538;6.728;2023-01-31T02:50:58;102087.38;;;4.39;100.00
19086;BME280;9675;51.538;6.728;2023-01-31T02:53:31;102091.31;;;4.35;100.00
19086;BME280;9675;51.538;6.728;2023-01-31T02:56:04;102091.31;;;4.35;100.00
19086;BME280;9675;51.538;6.728;2023-01-31T02:58:55;102091.31;;;4.35;100.00
19086;BME280;9675;51.538;6.728;2023-01-31T03:01:28;102087.41;;;4.30;100.00
19086;BME280;9675;51.538;6.728;2023-01-31T03:04:00;102080.53;;;4.29;100.00
19086;BME280;9675;51.538;6.728;2023-01-31T03:06:51;102085.91;;;4.32;100.00
19086;BME280;9675;51.538;6.728;2023-01-31T03:09:32;102072.59;;;4.26;100.00
19086;BME280;9675;51.538;6.728;2023-01-31T03:12:28;102075.44;;;4.29;100.00
19086;BME280;9675;51.538;6.728;2023-01-31T03:15:22;102072.75;;;4.27;100.00
19086;BME280;9675;51.538;6.728;2023-01-31T03:18:19;102069.00;;;4.24;100.00
19086;BME280;9675;51.538;6.728;2023-01-31T03:20:55;102069.75;;;4.23;100.00
19086;BME280;9675;51.538;6.728;2023-01-31T03:23:28;102058.81;;;4.24;100.00
19086;BME280;9675;51.538;6.728;2023-01-31T03:26:01;102059.72;;;4.24;100.00
19086;BME280;9675;51.538;6.728;2023-01-31T03:28:33;102059.56;;;4.23;100.00
19086;BME280;9675;51.538;6.728;2023-01-31T03:31:09;102060.47;;;4.23;100.00
19086;BME280;9675;51.538;6.728;2023-01-31T03:33:43;102071.56;;;4.24;100.00
19086;BME280;9675;51.538;6.728;2023-01-31T03:36:23;102057.75;;;4.22;100.00
19086;BME280;9675;51.538;6.728;2023-01-31T03:39:07;102060.47;;;4.23;100.00
19086;BME280;9675;51.538;6.728;2023-01-31T03:41:50;102044.88;;;4.20;100.00
19086;BME280;9675;51.538;6.728;2023-01-31T03:44:30;102037.69;;;4.16;100.00
19086;BME280;9675;51.538;6.728;2023-01-31T03:47:07;102035.78;;;4.14;100.00
19086;BME280;9675;51.538;6.728;2023-01-31T03:49:38;102024.25;;;4.09;100.00
19086;BME280;9675;51.538;6.728;2023-01-31T03:52:09;102021.38;;;4.06;100.00
19086;BME280;9675;51.538;6.728;2023-01-31T03:54:46;102015.53;;;4.07;100.00
19086;BME280;9675;51.538;6.728;2023-01-31T03:57:21;102008.66;;;4.06;100.00
19086;BME280;9675;51.538;6.728;2023-01-31T03:59:54;102019.59;;;4.05;100.00
19086;BME280;9675;51.538;6.728;2023-01-31T04:02:29;102025.75;;;4.07;100.00
19086;BME280;9675;51.538;6.728;2023-01-31T04:05:06;102015.28;;;4.04;100.00
19086;BME280;9675;51.538;6.728;2023-01-31T04:07:35;102013.59;;;4.04;100.00
19086;BME280;9675;51.538;6.728;2023-01-31T04:10:11;102004.78;;;4.01;100.00
19086;BME280;9675;51.538;6.728;2023-01-31T04:12:38;102005.66;;;4.01;100.00
19086;BME280;9675;51.538;6.728;2023-01-31T04:15:08;102001.19;;;3.99;100.00
19086;BME280;9675;51.538;6.728;2023-01-31T04:17:35;102003.59;;;3.97;100.00
19086;BME280;9675;51.538;6.728;2023-01-31T04:20:04;101996.84;;;3.98;100.00
19086;BME280;9675;51.538;6.728;2023-01-31T04:22:32;101989.81;;;3.95;100.00
19086;BME280;9675;51.538;6.728;2023-01-31T04:24:59;102006.31;;;3.99;100.00
19086;BME280;9675;51.538;6.728;2023-01-31T04:27:28;102014.97;;;4.01;100.00
19086;BME280;9675;51.538;6.728;2023-01-31T04:29:55;102007.47;;;4.02;100.00
19086;BME280;9675;51.538;6.728;2023-01-31T04:32:22;102011.03;;;4.04;100.00
19086;BME280;9675;51.538;6.728;2023-01-31T04:34:49;102015.28;;;4.04;100.00
19086;BME280;9675;51.538;6.728;2023-01-31T04:37:16;102015.53;;;4.07;100.00
19086;BME280;9675;51.538;6.728;2023-01-31T04:39:43;102008.81;;;4.07;100.00
19086;BME280;9675;51.538;6.728;2023-01-31T04:42:10;102022.44;;;4.08;100.00
19086;BME280;9675;51.538;6.728;2023-01-31T04:44:38;102019.16;;;4.09;100.00
19086;BME280;9675;51.538;6.728;2023-01-31T04:47:05;102005.63;;;4.10;100.00
19086;BME280;9675;51.538;6.728;2023-01-31T04:49:32;102005.63;;;4.10;100.00
19086;BME280;9675;51.538;6.728;2023-01-31T04:51:59;101997.97;;;4.10;100.00
19086;BME280;9675;51.538;6.728;2023-01-31T04:54:26;102006.41;;;4.09;100.00
19086;BME280;9675;51.538;6.728;2023-01-31T04:56:53;102003.56;;;4.06;100.00
19086;BME280;9675;51.538;6.728;2023-01-31T04:59:20;101995.00;;;4.05;100.00
19086;BME280;9675;51.538;6.728;2023-01-31T05:01:49;102001.75;;;4.05;100.00
19086;BME280;9675;51.538;6.728;2023-01-31T05:04:16;102002.53;;;4.04;100.00
19086;BME280;9675;51.538;6.728;2023-01-31T05:06:43;102001.63;;;4.03;100.00
19086;BME280;9675;51.538;6.728;2023-01-31T05:09:10;102003.13;;;4.01;100.00
19086;BME280;9675;51.538;6.728;2023-01-31T05:11:39;101999.69;;;4.01;100.00
19086;BME280;9675;51.538;6.728;2023-01-31T05:14:06;101997.88;;;4.00;100.00
19086;BME280;9675;51.538;6.728;2023-01-31T05:16:33;101995.47;;;4.01;100.00
19086;BME280;9675;51.538;6.728;2023-01-31T05:19:02;101991.28;;;4.02;100.00
19086;BME280;9675;51.538;6.728;2023-01-31T05:21:29;101996.66;;;4.05;100.00
19086;BME280;9675;51.538;6.728;2023-01-31T05:24:16;101990.81;;;4.06;100.00
19086;BME280;9675;51.538;6.728;2023-01-31T05:26:44;101973.88;;;4.06;100.00
19086;BME280;9675;51.538;6.728;2023-01-31T05:29:12;101966.38;;;4.08;100.00
19086;BME280;9675;51.538;6.728;2023-01-31T05:31:42;101973.13;;;4.07;100.00
19086;BME280;9675;51.538;6.728;2023-01-31T05:34:11;101967.88;;;4.06;100.00
19086;BME280;9675;51.538;6.728;2023-01-31T05:36:41;101968.63;;;4.05;100.00
19086;BME280;9675;51.538;6.728;2023-01-31T05:39:09;101966.84;;;4.04;100.00
19086;BME280;9675;51.538;6.728;2023-01-31T05:41:36;101949.75;;;4.03;100.00
19086;BME280;9675;51.538;6.728;2023-01-31T05:44:03;101945.41;;;4.02;100.00
19086;BME280;9675;51.538;6.728;2023-01-31T05:46:30;101940.06;;;3.99;100.00
19086;BME280;9675;51.538;6.728;2023-01-31T05:48:57;101948.72;;;4.01;100.00
19086;BME280;9675;51.538;6.728;2023-01-31T05:51:26;101937.78;;;4.02;100.00
19086;BME280;9675;51.538;6.728;2023-01-31T05:53:53;101928.31;;;4.01;100.00
19086;BME280;9675;51.538;6.728;2023-01-31T05:56:21;101924.75;;;3.99;100.00
19086;BME280;9675;51.538;6.728;2023-01-31T05:58:48;101925.63;;;3.99;100.00
19086;BME280;9675;51.538;6.728;2023-01-31T06:01:16;101932.69;;;4.02;100.00
19086;BME280;9675;51.538;6.728;2023-01-31T06:03:44;101940.91;;;3.99;100.00
19086;BME280;9675;51.538;6.728;2023-01-31T06:06:11;101937.78;;;4.02;100.00
19086;BME280;9675;51.538;6.728;2023-01-31T06:08:40;101941.22;;;4.02;100.00
19086;BME280;9675;51.538;6.728;2023-01-31T06:11:09;101935.38;;;4.03;100.00
19086;BME280;9675;51.538;6.728;2023-01-31T06:13:37;101935.50;;;4.05;100.00
19086;BME280;9675;51.538;6.728;2023-01-31T06:16:05;101944.19;;;4.07;100.00
19086;BME280;9675;51.538;6.728;2023-01-31T06:18:33;101937.28;;;4.06;100.00
19086;BME280;9675;51.538;6.728;2023-01-31T06:21:00;101933.09;;;4.06;100.00
19086;BME280;9675;51.538;6.728;2023-01-31T06:23:27;101937.44;;;4.07;100.00
19086;BME280;9675;51.538;6.728;2023-01-31T06:25:56;101940.91;;;4.08;100.00
19086;BME280;9675;51.538;6.728;2023-01-31T06:28:23;101934.00;;;4.07;100.00
19086;BME280;9675;51.538;6.728;2023-01-31T06:30:50;101942.38;;;4.06;100.00
19086;BME280;9675;51.538;6.728;2023-01-31T06:33:17;101937.28;;;4.06;100.00
19086;BME280;9675;51.538;6.728;2023-01-31T06:35:44;101936.53;;;4.07;100.00
19086;BME280;9675;51.538;6.728;2023-01-31T06:38:11;101929.66;;;4.06;100.00
19086;BME280;9675;51.538;6.728;2023-01-31T06:40:41;101937.59;;;4.09;100.00
19086;BME280;9675;51.538;6.728;2023-01-31T06:43:09;101948.53;;;4.08;100.00
19086;BME280;9675;51.538;6.728;2023-01-31T06:45:36;101951.34;;;4.11;100.00
19086;BME280;9675;51.538;6.728;2023-01-31T06:48:03;101945.38;;;4.10;100.00
19086;BME280;9675;51.538;6.728;2023-01-31T06:50:30;101954.81;;;4.11;100.00
19086;BME280;9675;51.538;6.728;2023-01-31T06:52:57;101951.50;;;4.12;100.00
19086;BME280;9675;51.538;6.728;2023-01-31T06:55:25;101929.81;;;4.07;100.00
19086;BME280;9675;51.538;6.728;2023-01-31T06:57:52;101933.66;;;4.12;100.00
19086;BME280;9675;51.538;6.728;2023-01-31T07:00:22;101946.56;;;4.14;100.00
19086;BME280;9675;51.538;6.728;2023-01-31T07:02:51;101943.88;;;4.12;100.00
19086;BME280;9675;51.538;6.728;2023-01-31T07:05:19;101942.97;;;4.12;100.00
19086;BME280;9675;51.538;6.728;2023-01-31T07:07:47;101945.50;;;4.12;100.00
19086;BME280;9675;51.538;6.728;2023-01-31T07:10:20;101942.97;;;4.12;100.00
19086;BME280;9675;51.538;6.728;2023-01-31T07:12:47;101937.13;;;4.13;100.00
19086;BME280;9675;51.538;6.728;2023-01-31T07:15:15;101941.59;;;4.15;100.00
19086;BME280;9675;51.538;6.728;2023-01-31T07:17:43;101934.09;;;4.17;100.00
19086;BME280;9675;51.538;6.728;2023-01-31T07:20:11;101937.38;;;4.16;100.00
19086;BME280;9675;51.538;6.728;2023-01-31T07:22:38;101937.38;;;4.16;100.00
19086;BME280;9675;51.538;6.728;2023-01-31T07:25:07;101940.69;;;4.15;100.00
19086;BME280;9675;51.538;6.728;2023-01-31T07:27:34;101943.22;;;4.15;100.00
19086;BME280;9675;51.538;6.728;2023-01-31T07:30:01;101938.13;;;4.15;100.00
19086;BME280;9675;51.538;6.728;2023-01-31T07:32:29;101942.63;;;4.17;100.00
19086;BME280;9675;51.538;6.728;2023-01-31T07:34:57;101934.09;;;4.17;100.00
19086;BME280;9675;51.538;6.728;2023-01-31T07:37:24;101931.53;;;4.17;100.00
19086;BME280;9675;51.538;6.728;2023-01-31T07:39:51;101927.34;;;4.17;100.00
19086;BME280;9675;51.538;6.728;2023-01-31T07:42:18;101916.25;;;4.17;100.00
19086;BME280;9675;51.538;6.728;2023-01-31T07:44:45;101918.03;;;4.18;100.00
19086;BME280;9675;51.538;6.728;2023-01-31T07:47:13;101909.66;;;4.19;100.00
19086;BME280;9675;51.538;6.728;2023-01-31T07:49:40;101908.59;;;4.17;100.00
19086;BME280;9675;51.538;6.728;2023-01-31T07:52:08;101911.16;;;4.17;100.00
19086;BME280;9675;51.538;6.728;2023-01-31T07:54:35;101908.75;;;4.18;100.00
19086;BME280;9675;51.538;6.728;2023-01-31T07:57:03;101911.41;;;4.20;100.00
19086;BME280;9675;51.538;6.728;2023-01-31T07:59:31;101912.47;;;4.22;100.00
19086;BME280;9675;51.538;6.728;2023-01-31T08:01:58;101926.88;;;4.21;100.00
19086;BME280;9675;51.538;6.728;2023-01-31T08:04:43;101914.13;;;4.21;100.00
19086;BME280;9675;51.538;6.728;2023-01-31T08:07:11;101915.00;;;4.22;100.00
19086;BME280;9675;51.538;6.728;2023-01-31T08:09:39;101916.06;;;4.24;100.00
19086;BME280;9675;51.538;6.728;2023-01-31T08:12:08;101916.06;;;4.24;100.00
19086;BME280;9675;51.538;6.728;2023-01-31T08:14:35;101907.78;;;4.26;100.00
19086;BME280;9675;51.538;6.728;2023-01-31T08:17:02;101906.88;;;4.26;100.00
19086;BME280;9675;51.538;6.728;2023-01-31T08:19:29;101905.09;;;4.25;100.00
19086;BME280;9675;51.538;6.728;2023-01-31T08:21:56;101912.13;;;4.27;100.00
19086;BME280;9675;51.538;6.728;2023-01-31T08:24:24;101888.28;;;4.27;100.00
19086;BME280;9675;51.538;6.728;2023-01-31T08:26:51;101884.09;;;4.27;100.00
19086;BME280;9675;51.538;6.728;2023-01-31T08:29:19;101880.03;;;4.30;100.00
19086;BME280;9675;51.538;6.728;2023-01-31T08:31:46;101873.16;;;4.28;100.00
19086;BME280;9675;51.538;6.728;2023-01-31T08:34:14;101866.25;;;4.27;100.00
19086;BME280;9675;51.538;6.728;2023-01-31T08:36:41;101864.59;;;4.28;100.00
19086;BME280;9675;51.538;6.728;2023-01-31T08:39:10;101853.66;;;4.29;100.00
19086;BME280;9675;51.538;6.728;2023-01-31T08:41:38;101851.09;;;4.29;100.00
19086;BME280;9675;51.538;6.728;2023-01-31T08:44:06;101859.66;;;4.30;100.00
19086;BME280;9675;51.538;6.728;2023-01-31T08:46:35;101844.19;;;4.28;100.00
19086;BME280;9675;51.538;6.728;2023-01-31T08:49:05;101841.16;;;4.32;100.00
19086;BME280;9675;51.538;6.728;2023-01-31T08:51:33;101840.41;;;4.33;100.00
19086;BME280;9675;51.538;6.728;2023-01-31T08:54:00;101836.38;;;4.35;100.00
19086;BME280;9675;51.538;6.728;2023-01-31T08:56:27;101824.38;;;4.34;100.00
19086;BME280;9675;51.538;6.728;2023-01-31T08:58:56;101835.47;;;4.35;100.00
19086;BME280;9675;51.538;6.728;2023-01-31T09:01:24;101837.38;;;4.37;100.00
19086;BME280;9675;51.538;6.728;2023-01-31T09:03:51;101838.91;;;4.35;100.00
19086;BME280;9675;51.538;6.728;2023-01-31T09:06:22;101827.94;;;4.36;100.00
19086;BME280;9675;51.538;6.728;2023-01-31T09:08:51;101834.81;;;4.37;100.00
19086;BME280;9675;51.538;6.728;2023-01-31T09:11:19;101826.44;;;4.38;100.00
19086;BME280;9675;51.538;6.728;2023-01-31T09:13:48;101826.44;;;4.38;100.00
19086;BME280;9675;51.538;6.728;2023-01-31T09:16:18;101832.84;;;4.43;100.00
19086;BME280;9675;51.538;6.728;2023-01-31T09:18:46;101829.38;;;4.43;100.00
19086;BME280;9675;51.538;6.728;2023-01-31T09:21:16;101825.19;;;4.43;100.00
19086;BME280;9675;51.538;6.728;2023-01-31T09:23:45;101823.69;;;4.45;100.00
19086;BME280;9675;51.538;6.728;2023-01-31T09:26:13;101821.25;;;4.47;100.00
19086;BME280;9675;51.538;6.728;2023-01-31T09:28:42;101827.53;;;4.50;100.00
19086;BME280;9675;51.538;6.728;2023-01-31T09:31:12;101825.84;;;4.51;100.00
19086;BME280;9675;51.538;6.728;2023-01-31T09:33:41;101808.13;;;4.52;100.00
19086;BME280;9675;51.538;6.728;2023-01-31T09:36:11;101814.28;;;4.54;100.00
19086;BME280;9675;51.538;6.728;2023-01-31T09:38:38;101802.28;;;4.53;100.00
19086;BME280;9675;51.538;6.728;2023-01-31T09:41:18;101789.53;;;4.53;100.00
19086;BME280;9675;51.538;6.728;2023-01-31T09:43:54;101798.50;;;4.58;100.00
19086;BME280;9675;51.538;6.728;2023-01-31T09:46:27;101792.63;;;4.59;100.00
19086;BME280;9675;51.538;6.728;2023-01-31T09:49:00;101796.97;;;4.60;100.00
19086;BME280;9675;51.538;6.728;2023-01-31T09:51:31;101797.09;;;4.62;100.00
19086;BME280;9675;51.538;6.728;2023-01-31T09:54:01;101781.19;;;4.64;100.00
19086;BME280;9675;51.538;6.728;2023-01-31T09:56:39;101783.22;;;4.68;100.00
19086;BME280;9675;51.538;6.728;2023-01-31T09:59:19;101788.34;;;4.68;100.00
19086;BME280;9675;51.538;6.728;2023-01-31T10:01:57;101783.47;;;4.71;100.00
19086;BME280;9675;51.538;6.728;2023-01-31T10:04:46;101756.06;;;4.69;100.00
19086;BME280;9675;51.538;6.728;2023-01-31T10:07:27;101765.91;;;4.75;100.00
19086;BME280;9675;51.538;6.728;2023-01-31T10:10:02;101764.25;;;4.75;100.00
19086;BME280;9675;51.538;6.728;2023-01-31T10:12:41;101781.63;;;4.79;100.00
19086;BME280;9675;51.538;6.728;2023-01-31T10:15:15;101765.56;;;4.80;100.00
19086;BME280;9675;51.538;6.728;2023-01-31T10:17:49;101758.81;;;4.81;100.00
19086;BME280;9675;51.538;6.728;2023-01-31T10:20:29;101764.91;;;4.83;100.00
19086;BME280;9675;51.538;6.728;2023-01-31T10:23:03;101748.09;;;4.85;100.00
19086;BME280;9675;51.538;6.728;2023-01-31T10:25:38;101754.47;;;4.90;100.00
19086;BME280;9675;51.538;6.728;2023-01-31T10:28:13;101768.28;;;4.92;100.00
19086;BME280;9675;51.538;6.728;2023-01-31T10:30:54;101774.41;;;4.94;100.00
19086;BME280;9675;51.538;6.728;2023-01-31T10:33:33;101778.75;;;4.95;100.00
19086;BME280;9675;51.538;6.728;2023-01-31T10:36:11;101770.47;;;4.97;100.00
19086;BME280;9675;51.538;6.728;2023-01-31T10:38:53;101766.50;;;5.01;100.00
19086;BME280;9675;51.538;6.728;2023-01-31T10:41:39;101758.09;;;5.02;100.00
19086;BME280;9675;51.538;6.728;2023-01-31T10:44:19;101762.69;;;5.06;100.00
19086;BME280;9675;51.538;6.728;2023-01-31T10:46:50;101778.25;;;5.09;100.00
19086;BME280;9675;51.538;6.728;2023-01-31T10:49:22;101762.34;;;5.11;100.00
19086;BME280;9675;51.538;6.728;2023-01-31T10:52:09;101753.28;;;5.15;100.00
19086;BME280;9675;51.538;6.728;2023-01-31T10:54:50;101738.22;;;5.18;100.00
19086;BME280;9675;51.538;6.728;2023-01-31T10:57:19;101742.53;;;5.19;100.00
19086;BME280;9675;51.538;6.728;2023-01-31T10:59:47;101728.25;;;5.21;100.00
19086;BME280;9675;51.538;6.728;2023-01-31T11:02:20;101727.63;;;5.24;100.00
19086;BME280;9675;51.538;6.728;2023-01-31T11:04:51;101732.09;;;5.26;100.00
19086;BME280;9675;51.538;6.728;2023-01-31T11:07:22;101724.69;;;5.29;100.00
19086;BME280;9675;51.538;6.728;2023-01-31T11:09:52;101730.84;;;5.31;100.00
19086;BME280;9675;51.538;6.728;2023-01-31T11:12:22;101721.66;;;5.33;100.00
19086;BME280;9675;51.538;6.728;2023-01-31T11:15:14;101708.22;;;5.36;100.00
19086;BME280;9675;51.538;6.728;2023-01-31T11:17:43;101707.59;;;5.38;100.00
19086;BME280;9675;51.538;6.728;2023-01-31T11:20:21;101723.19;;;5.41;100.00
19086;BME280;9675;51.538;6.728;2023-01-31T11:22:52;101714.75;;;5.42;100.00
19086;BME280;9675;51.538;6.728;2023-01-31T11:25:22;101725.22;;;5.45;100.00
19086;BME280;9675;51.538;6.728;2023-01-31T11:27:55;101718.59;;;5.47;100.00
19086;BME280;9675;51.538;6.728;2023-01-31T11:30:27;101712.81;;;5.50;100.00
19086;BME280;9675;51.538;6.728;2023-01-31T11:32:56;101708.75;;;5.52;100.00
19086;BME280;9675;51.538;6.728;2023-01-31T11:35:27;101702.88;;;5.53;100.00
19086;BME280;9675;51.538;6.728;2023-01-31T11:37:59;101701.97;;;5.52;100.00
19086;BME280;9675;51.538;6.728;2023-01-31T11:40:31;101696.22;;;5.55;100.00
19086;BME280;9675;51.538;6.728;2023-01-31T11:43:00;101689.59;;;5.57;100.00
19086;BME280;9675;51.538;6.728;2023-01-31T11:45:30;101699.16;;;5.60;100.00
19086;BME280;9675;51.538;6.728;2023-01-31T11:48:05;101699.41;;;5.63;100.00
19086;BME280;9675;51.538;6.728;2023-01-31T11:50:38;101692.53;;;5.62;100.00
19086;BME280;9675;51.538;6.728;2023-01-31T11:53:18;101701.44;;;5.67;100.00
19086;BME280;9675;51.538;6.728;2023-01-31T11:55:49;101695.44;;;5.66;100.00
19086;BME280;9675;51.538;6.728;2023-01-31T11:58:20;101687.91;;;5.68;100.00
19086;BME280;9675;51.538;6.728;2023-01-31T12:00:54;101681.16;;;5.68;100.00
19086;BME280;9675;51.538;6.728;2023-01-31T12:03:24;101687.41;;;5.72;100.00
19086;BME280;9675;51.538;6.728;2023-01-31T12:06:00;101687.53;;;5.73;100.00
19086;BME280;9675;51.538;6.728;2023-01-31T12:08:33;101673.09;;;5.74;100.00
19086;BME280;9675;51.538;6.728;2023-01-31T12:11:04;101685.09;;;5.75;100.00
19086;BME280;9675;51.538;6.728;2023-01-31T12:13:44;101686.09;;;5.77;100.00
19086;BME280;9675;51.538;6.728;2023-01-31T12:16:12;101685.59;;;5.81;100.00
19086;BME280;9675;51.538;6.728;2023-01-31T12:19:02;101685.84;;;5.84;100.00
19086;BME280;9675;51.538;6.728;2023-01-31T12:21:48;101674.06;;;5.86;100.00
19086;BME280;9675;51.538;6.728;2023-01-31T12:24:35;101675.75;;;5.85;100.00
19086;BME280;9675;51.538;6.728;2023-01-31T12:27:21;101674.06;;;5.86;100.00
19086;BME280;9675;51.538;6.728;2023-01-31T12:30:24;101656.34;;;5.87;100.00
19086;BME280;9675;51.538;6.728;2023-01-31T12:33:23;101654.94;;;5.91;100.00
19086;BME280;9675;51.538;6.728;2023-01-31T12:36:16;101640.38;;;5.90;100.00
19086;BME280;9675;51.538;6.728;2023-01-31T12:38:59;101651.59;;;5.92;100.00
19086;BME280;9675;51.538;6.728;2023-01-31T12:41:33;101641.50;;;5.93;100.00
19086;BME280;9675;51.538;6.728;2023-01-31T12:44:25;101645.97;;;5.96;100.00
19086;BME280;9675;51.538;6.728;2023-01-31T12:47:21;101638.28;;;5.96;100.00
19086;BME280;9675;51.538;6.728;2023-01-31T12:50:19;101642.66;;;5.97;100.00
19086;BME280;9675;51.538;6.728;2023-01-31T12:53:15;101641.13;;;5.99;100.00
19086;BME280;9675;51.538;6.728;2023-01-31T12:56:01;101646.22;;;5.99;100.00
19086;BME280;9675;51.538;6.728;2023-01-31T12:58:48;101638.69;;;6.01;100.00
19086;BME280;9675;51.538;6.728;2023-01-31T13:01:23;101643.91;;;6.02;100.00
19086;BME280;9675;51.538;6.728;2023-01-31T13:04:24;101653.38;;;6.03;100.00
19086;BME280;9675;51.538;6.728;2023-01-31T13:06:58;101642.25;;;6.03;100.00
19086;BME280;9675;51.538;6.728;2023-01-31T13:09:31;101648.25;;;6.03;100.00
19086;BME280;9675;51.538;6.728;2023-01-31T13:12:06;101651.84;;;6.05;100.00
19086;BME280;9675;51.538;6.728;2023-01-31T13:14:42;101645.16;;;6.07;100.00
19086;BME280;9675;51.538;6.728;2023-01-31T13:17:16;101647.72;;;6.07;100.00
19086;BME280;9675;51.538;6.728;2023-01-31T13:19:53;101640.84;;;6.06;100.00
19086;BME280;9675;51.538;6.728;2023-01-31T13:22:27;101647.72;;;6.07;100.00
19086;BME280;9675;51.538;6.728;2023-01-31T13:25:14;101653.88;;;6.09;100.00
19086;BME280;9675;51.538;6.728;2023-01-31T13:27:50;101653.88;;;6.09;100.00
19086;BME280;9675;51.538;6.728;2023-01-31T13:30:27;101643.63;;;6.09;100.00
19086;BME280;9675;51.538;6.728;2023-01-31T13:32:57;101641.84;;;6.08;100.00
19086;BME280;9675;51.538;6.728;2023-01-31T13:35:31;101635.97;;;6.09;100.00